Time;durP1;ratioP1;P1;durP2;ratioP2;P2;SDS_P1;SDS_P2;PMS_P1;PMS_P2;Temp;Humidity;BMP_temperature;BMP_pressure;BME280_temperature;BME280_humidity;BME280_pressure;Samples;Min_cycle;Max_cycle;Signal;HPM_P1;HPM_P2
2023/09/03 00:00:47;;;;;;;16.27;7.55;;;;;;;25.20;62.04;101744.47;6117944;23;20025;-80
2023/09/03 00:03:13;;;;;;;11.50;7.63;;;;;;;25.21;61.39;101738.81;6125486;23;20245;-78
2023/09/03 00:05:53;;;;;;;10.15;7.05;;;;;;;25.23;60.76;101739.44;6124486;23;20025;-79
2023/09/03 00:08:22;;;;;;;12.07;7.10;;;;;;;25.22;61.05;101732.34;6139760;23;20024;-82
2023/09/03 00:10:55;;;;;;;8.93;6.78;;;;;;;25.02;60.74;101706.97;6091742;23;20427;-81
2023/09/03 00:13:22;;;;;;;13.27;8.10;;;;;;;24.19;60.72;101571.38;6123061;23;20297;-82
2023/09/03 00:15:52;;;;;;;17.10;8.05;;;;;;;25.21;61.05;101738.81;6135204;23;20194;-84
2023/09/03 00:18:19;;;;;;;15.32;7.18;;;;;;;25.07;60.90;101720.75;6115366;23;20021;-83
2023/09/03 00:21:01;;;;;;;10.90;8.50;;;;;;;25.19;60.83;101746.31;6117717;23;20434;-81
2023/09/03 00:23:31;;;;;;;14.32;7.93;;;;;;;24.56;61.13;101648.75;6111971;23;20056;-82
2023/09/03 00:25:59;;;;;;;12.15;7.95;;;;;;;24.90;61.24;101702.16;6100302;23;20067;-82
2023/09/03 00:28:31;;;;;;;9.02;7.70;;;;;;;25.06;61.41;101740.84;6110939;23;20488;-84
2023/09/03 00:31:09;;;;;;;16.13;7.68;;;;;;;24.70;61.49;101672.19;6120427;23;20412;-84
2023/09/03 00:33:40;;;;;;;13.00;7.57;;;;;;;25.05;61.35;101733.72;6108519;23;20028;-82
2023/09/03 00:36:13;;;;;;;16.63;8.60;;;;;;;24.72;61.14;101680.97;6093644;23;20068;-83
2023/09/03 00:38:40;;;;;;;11.68;7.03;;;;;;;24.70;61.20;101677.63;6111024;23;20021;-83
2023/09/03 00:41:07;;;;;;;13.10;7.57;;;;;;;24.88;60.48;101700.66;6151270;23;20263;-83
2023/09/03 00:43:34;;;;;;;12.63;7.30;;;;;;;24.85;60.21;101699.19;6148003;23;20028;-82
2023/09/03 00:46:07;;;;;;;11.15;6.85;;;;;;;24.99;60.34;101712.81;6110156;23;20071;-83
2023/09/03 00:48:36;;;;;;;11.50;7.10;;;;;;;24.02;60.33;101565.47;6114757;23;20313;-81
2023/09/03 00:51:07;;;;;;;16.60;7.32;;;;;;;24.73;59.78;101673.66;6105431;23;20087;-85
2023/09/03 00:53:37;;;;;;;12.63;7.32;;;;;;;24.79;59.61;101683.72;6113526;23;20048;-83
2023/09/03 00:56:06;;;;;;;15.48;7.45;;;;;;;24.90;59.75;101701.28;6108964;23;20270;-84
2023/09/03 00:58:35;;;;;;;10.25;6.90;;;;;;;24.86;59.75;101695.44;6147606;23;20341;-83
2023/09/03 01:01:02;;;;;;;10.07;6.57;;;;;;;24.83;59.76;101687.72;6143916;23;20457;-83
2023/09/03 01:03:29;;;;;;;18.08;7.35;;;;;;;24.76;59.68;101686.84;6158172;23;20079;-82
2023/09/03 01:05:56;;;;;;;10.77;7.22;;;;;;;24.80;59.85;101698.97;6117648;23;20095;-82
2023/09/03 01:08:28;;;;;;;14.32;7.30;;;;;;;24.92;60.12;101723.66;6126034;23;20485;-83
2023/09/03 01:11:06;;;;;;;13.73;8.25;;;;;;;24.57;60.30;101665.91;6116781;23;20099;-84
2023/09/03 01:13:57;;;;;;;13.30;7.57;;;;;;;24.80;60.27;101709.81;6102281;23;20087;-82
2023/09/03 01:17:20;;;;;;;10.10;7.17;;;;;;;24.83;60.18;101717.59;6082191;23;20017;-84
2023/09/03 01:20:06;;;;;;;17.90;7.93;;;;;;;24.81;60.17;101705.22;6057875;23;20256;-81
2023/09/03 01:22:45;;;;;;;8.75;7.72;;;;;;;24.76;60.32;101705.88;6103764;23;20040;-82
2023/09/03 01:25:35;;;;;;;11.48;7.82;;;;;;;24.52;60.37;101670.06;6153798;23;20485;-82
2023/09/03 01:28:21;;;;;;;12.70;7.88;;;;;;;24.73;60.45;101711.69;6125473;23;20021;-83
2023/09/03 01:30:58;;;;;;;11.63;7.18;;;;;;;24.36;60.79;101658.69;6111403;23;20020;-81
2023/09/03 01:33:27;;;;;;;15.48;8.02;;;;;;;24.67;60.63;101709.78;6115557;23;20047;-82
2023/09/03 01:35:59;;;;;;;12.35;8.23;;;;;;;24.62;60.58;101706.84;6122602;23;20021;-83
2023/09/03 01:38:32;;;;;;;14.75;7.78;;;;;;;24.39;60.20;101663.69;6125589;23;20024;-83
2023/09/03 01:41:04;;;;;;;13.25;7.43;;;;;;;24.52;60.34;101697.19;6110226;23;20103;-81
2023/09/03 01:43:31;;;;;;;9.80;8.27;;;;;;;24.66;60.00;101716.25;6143346;23;20020;-81
2023/09/03 01:46:18;;;;;;;12.75;8.10;;;;;;;24.62;60.02;101706.84;6109377;23;20020;-82
2023/09/03 01:48:55;;;;;;;14.50;8.18;;;;;;;24.45;59.65;101685.44;6116044;23;20013;-81
2023/09/03 01:51:40;;;;;;;15.52;8.40;;;;;;;24.65;59.67;101711.88;6095002;23;20025;-80
2023/09/03 01:54:19;;;;;;;17.60;7.75;;;;;;;24.70;59.61;101721.06;6113589;23;20045;-82
2023/09/03 01:56:55;;;;;;;14.65;8.25;;;;;;;24.69;59.21;101702.28;6109819;23;20025;-81
2023/09/03 01:59:29;;;;;;;11.48;8.10;;;;;;;24.78;59.00;101711.06;6119875;23;20405;-81
2023/09/03 02:01:57;;;;;;;13.90;8.38;;;;;;;24.76;59.26;101724.88;6130387;23;20029;-79
2023/09/03 02:04:29;;;;;;;14.73;8.25;;;;;;;24.69;59.39;101710.44;6145088;23;20023;-83
2023/09/03 02:06:57;;;;;;;13.55;8.68;;;;;;;24.05;59.13;101606.56;6153875;23;20044;-81
2023/09/03 02:09:23;;;;;;;9.25;7.57;;;;;;;24.08;59.05;101614.31;6129213;23;20025;-82
2023/09/03 02:11:50;;;;;;;10.55;7.80;;;;;;;24.23;59.56;101640.47;6123442;23;20094;-81
2023/09/03 02:14:17;;;;;;;13.70;7.30;;;;;;;24.47;59.66;101691.53;6144509;23;20017;-82
2023/09/03 02:16:44;;;;;;;10.43;7.35;;;;;;;24.64;59.69;101721.06;6121220;23;20108;-83
2023/09/03 02:19:11;;;;;;;14.10;7.20;;;;;;;24.14;59.49;101638.97;6106802;23;20025;-83
2023/09/03 02:21:38;;;;;;;11.15;8.05;;;;;;;24.57;59.85;101721.03;6117225;23;20272;-81
2023/09/03 02:24:12;;;;;;;14.05;8.25;;;;;;;23.98;59.42;101623.84;6138250;23;20021;-83
2023/09/03 02:26:50;;;;;;;16.77;8.20;;;;;;;24.44;59.50;101710.91;6103866;23;20356;-82
2023/09/03 02:29:17;;;;;;;11.93;8.63;;;;;;;24.50;59.52;101729.13;6128921;23;20021;-82
2023/09/03 02:31:44;;;;;;;11.70;7.60;;;;;;;24.45;59.86;101723.44;6099761;23;20021;-83
2023/09/03 02:34:13;;;;;;;16.58;8.85;;;;;;;24.38;60.01;101721.75;6127597;23;20036;-80
2023/09/03 02:36:40;;;;;;;14.88;8.15;;;;;;;23.94;60.11;101661.38;6119455;23;20032;-81
2023/09/03 02:39:07;;;;;;;16.90;9.15;;;;;;;23.67;60.40;101634.06;6123084;23;20095;-82
2023/09/03 02:41:41;;;;;;;11.07;8.25;;;;;;;24.30;60.75;101728.16;6108844;23;20031;-82
2023/09/03 02:44:09;;;;;;;12.25;8.38;;;;;;;24.24;60.35;101726.25;6103999;23;20236;-80
2023/09/03 02:46:37;;;;;;;12.27;8.05;;;;;;;24.25;60.69;101736.91;6096616;23;20233;-82
2023/09/03 02:49:06;;;;;;;15.93;9.07;;;;;;;24.11;60.70;101721.59;6113825;23;20319;-82
2023/09/03 02:51:36;;;;;;;13.68;9.23;;;;;;;23.61;60.62;101634.84;6080479;23;20032;-82
2023/09/03 02:54:03;;;;;;;12.23;8.57;;;;;;;24.16;60.93;101729.97;6100099;23;20210;-80
2023/09/03 02:56:30;;;;;;;13.20;9.85;;;;;;;24.14;61.04;101728.47;6109125;23;20614;-82
2023/09/03 02:58:58;;;;;;;16.08;10.02;;;;;;;23.96;61.13;101708.13;6094410;23;20027;-82
2023/09/03 03:01:29;;;;;;;17.10;10.38;;;;;;;23.81;61.12;101688.41;6084611;23;20079;-81
2023/09/03 03:03:57;;;;;;;17.10;9.43;;;;;;;23.64;61.26;101667.00;6108607;23;20524;-81
2023/09/03 03:06:24;;;;;;;16.85;8.98;;;;;;;24.02;61.32;101742.59;6090866;23;20021;-82
2023/09/03 03:08:51;;;;;;;16.25;9.25;;;;;;;23.94;61.56;101736.50;6088797;23;20331;-82
2023/09/03 03:11:19;;;;;;;14.95;8.18;;;;;;;23.89;61.73;101739.78;6093192;23;20373;-81
2023/09/03 03:13:51;;;;;;;12.32;8.60;;;;;;;23.90;61.84;101738.75;6072817;23;20274;-80
2023/09/03 03:16:22;;;;;;;17.25;9.00;;;;;;;23.84;61.83;101740.38;6080291;23;20095;-82
2023/09/03 03:18:50;;;;;;;15.43;8.50;;;;;;;23.90;61.65;101752.31;6083756;23;20423;-81
2023/09/03 03:21:22;;;;;;;15.98;8.65;;;;;;;23.72;62.20;101724.81;6103223;23;20024;-81
2023/09/03 03:23:54;;;;;;;11.85;7.93;;;;;;;23.65;62.76;101722.88;6090699;23;20358;-82
2023/09/03 03:26:21;;;;;;;13.10;8.77;;;;;;;23.22;62.65;101652.47;6083044;23;20330;-80
2023/09/03 03:28:49;;;;;;;10.73;8.45;;;;;;;23.73;62.81;101735.47;6076348;23;20025;-81
2023/09/03 03:31:20;;;;;;;18.95;8.60;;;;;;;23.37;62.98;101670.50;6099452;23;20437;-80
2023/09/03 03:33:52;;;;;;;12.70;9.00;;;;;;;23.56;62.74;101698.81;6076559;23;20025;-82
2023/09/03 03:36:20;;;;;;;16.63;8.52;;;;;;;23.73;62.59;101723.78;6085758;23;20080;-82
2023/09/03 03:38:48;;;;;;;12.05;8.40;;;;;;;23.62;62.74;101707.00;6096007;23;20021;-82
2023/09/03 03:41:19;;;;;;;18.75;8.52;;;;;;;23.52;62.76;101695.69;6085476;23;20028;-82
2023/09/03 03:43:51;;;;;;;11.38;8.73;;;;;;;23.65;62.76;101714.75;6090539;23;20462;-81
2023/09/03 03:46:20;;;;;;;14.77;9.07;;;;;;;23.57;62.68;101714.03;6119567;23;20021;-80
2023/09/03 03:48:48;;;;;;;18.00;9.75;;;;;;;23.50;62.90;101697.75;6068089;23;20021;-81
2023/09/03 03:51:15;;;;;;;12.15;9.30;;;;;;;23.68;62.74;101730.59;6119662;23;20040;-81
2023/09/03 03:53:48;;;;;;;14.55;9.43;;;;;;;23.58;62.67;101721.97;6094463;23;20035;-82
2023/09/03 03:56:18;;;;;;;15.73;9.25;;;;;;;23.43;62.30;101696.84;6094550;23;20518;-82
2023/09/03 03:58:45;;;;;;;9.77;8.10;;;;;;;22.95;62.16;101623.44;6094136;23;20024;-81
2023/09/03 04:01:25;;;;;;;20.55;9.48;;;;;;;23.62;62.59;101730.56;6070676;23;20021;-82
2023/09/03 04:03:54;;;;;;;13.30;9.27;;;;;;;23.65;62.39;101735.59;6097635;23;20484;-81
2023/09/03 04:06:21;;;;;;;12.73;9.52;;;;;;;23.32;62.25;101672.97;6079254;23;20045;-81
2023/09/03 04:08:51;;;;;;;13.45;9.15;;;;;;;23.34;62.12;101688.00;6093115;23;20017;-82
2023/09/03 04:11:19;;;;;;;15.75;8.13;;;;;;;23.45;62.23;101705.63;6133152;23;20028;-81
2023/09/03 04:13:49;;;;;;;15.55;9.15;;;;;;;23.59;62.17;101739.94;6074346;23;20496;-81
2023/09/03 04:16:24;;;;;;;13.63;9.27;;;;;;;23.12;62.03;101660.09;6082648;23;20664;-80
2023/09/03 04:18:52;;;;;;;19.00;9.02;;;;;;;23.69;62.08;101766.72;6086031;23;20401;-82
2023/09/03 04:21:24;;;;;;;16.17;9.20;;;;;;;23.57;61.92;101750.13;6092703;23;20021;-82
2023/09/03 04:23:51;;;;;;;11.93;9.10;;;;;;;23.44;61.98;101736.44;6076553;23;20123;-81
2023/09/03 04:26:18;;;;;;;18.10;9.25;;;;;;;23.43;62.05;101745.63;6107450;23;20021;-80
2023/09/03 04:28:44;;;;;;;14.18;10.27;;;;;;;23.40;61.91;101741.44;6116705;23;20040;-81
2023/09/03 04:31:13;;;;;;;14.90;9.48;;;;;;;23.71;61.75;101785.47;6081832;23;20104;-82
2023/09/03 04:33:40;;;;;;;13.60;8.90;;;;;;;23.66;61.47;101778.75;6104083;23;20021;-83
2023/09/03 04:36:08;;;;;;;32.03;10.00;;;;;;;23.50;61.95;101773.63;6110940;23;20030;-83
2023/09/03 04:38:41;;;;;;;16.67;9.70;;;;;;;23.51;61.71;101774.44;6092063;23;20037;-82
2023/09/03 04:41:10;;;;;;;13.85;8.75;;;;;;;23.56;61.67;101780.13;6129227;23;20021;-82
2023/09/03 04:43:37;;;;;;;15.90;9.32;;;;;;;23.63;61.66;101798.13;6088165;23;20036;-83
2023/09/03 04:46:04;;;;;;;13.85;9.98;;;;;;;23.54;61.41;101780.31;6150205;23;20139;-82
2023/09/03 04:48:31;;;;;;;15.60;9.90;;;;;;;23.70;61.59;101811.75;6107490;23;20103;-82
2023/09/03 04:51:03;;;;;;;15.50;8.80;;;;;;;23.68;61.31;101803.81;6129303;23;20052;-82
2023/09/03 04:53:31;;;;;;;15.10;9.52;;;;;;;23.54;61.58;101783.03;6115405;23;20130;-80
2023/09/03 04:55:58;;;;;;;16.70;9.77;;;;;;;23.62;61.67;101809.19;6114815;23;20474;-82
2023/09/03 04:58:25;;;;;;;12.48;9.52;;;;;;;23.64;61.44;101812.50;6142708;23;20385;-80
2023/09/03 05:00:54;;;;;;;15.93;9.82;;;;;;;23.55;61.41;101798.28;6138352;23;20442;-81
2023/09/03 05:03:27;;;;;;;12.95;9.00;;;;;;;23.64;61.34;101813.38;6147646;23;20021;-82
2023/09/03 05:05:59;;;;;;;15.15;9.68;;;;;;;23.66;61.44;101805.88;6145990;23;20475;-82
2023/09/03 05:08:26;;;;;;;18.85;10.15;;;;;;;23.67;61.51;101804.84;6098663;23;20530;-83
2023/09/03 05:11:06;;;;;;;15.48;10.02;;;;;;;23.49;61.80;101782.75;6077892;23;20025;-82
2023/09/03 05:13:33;;;;;;;18.80;9.48;;;;;;;23.64;62.11;101807.97;6093299;23;20029;-82
2023/09/03 05:16:00;;;;;;;15.27;10.23;;;;;;;23.69;61.58;101815.50;6120058;23;20032;-81
2023/09/03 05:18:29;;;;;;;21.73;10.77;;;;;;;23.53;61.15;101775.94;6098067;23;20480;-82
2023/09/03 05:21:10;;;;;;;13.27;10.63;;;;;;;23.71;61.44;101813.41;6086632;23;20021;-81
2023/09/03 05:23:37;;;;;;;16.30;10.95;;;;;;;23.38;61.29;101764.31;6120824;23;20017;-81
2023/09/03 05:26:04;;;;;;;14.93;10.80;;;;;;;23.48;61.09;101789.22;6130313;23;20214;-81
2023/09/03 05:28:32;;;;;;;20.50;10.98;;;;;;;23.72;61.32;101831.38;6114892;23;20029;-81
2023/09/03 05:30:59;;;;;;;19.85;11.63;;;;;;;23.78;61.39;101832.50;6114120;23;20469;-82
2023/09/03 05:33:29;;;;;;;20.90;11.38;;;;;;;23.76;61.07;101826.44;6118082;23;20025;-82
2023/09/03 05:35:56;;;;;;;16.55;10.90;;;;;;;23.54;61.22;101785.72;6121461;23;20391;-80
2023/09/03 05:38:23;;;;;;;11.70;10.23;;;;;;;23.59;61.32;101804.13;6113638;23;20472;-80
2023/09/03 05:40:49;;;;;;;17.17;10.18;;;;;;;23.44;61.39;101775.22;6151387;23;20013;-81
2023/09/03 05:43:21;;;;;;;15.48;10.70;;;;;;;23.45;60.99;101760.66;6108481;23;20249;-83
2023/09/03 05:45:54;;;;;;;15.18;11.43;;;;;;;23.87;60.84;101826.75;6109404;23;20027;-82
2023/09/03 05:48:26;;;;;;;17.67;10.88;;;;;;;23.94;60.29;101823.28;6081764;23;20487;-81
2023/09/03 05:51:06;;;;;;;18.52;10.38;;;;;;;23.96;60.49;101822.03;6128035;23;20027;-82
2023/09/03 05:53:34;;;;;;;17.85;10.75;;;;;;;23.64;60.60;101769.13;6104057;23;20499;-82
2023/09/03 05:56:05;;;;;;;15.65;10.98;;;;;;;23.86;60.33;101791.69;6105641;23;20505;-82
2023/09/03 05:58:33;;;;;;;16.90;10.57;;;;;;;24.00;60.25;101807.03;6138146;23;20021;-82
2023/09/03 06:01:12;;;;;;;16.60;11.13;;;;;;;23.97;60.48;101793.03;6102835;23;20465;-81
2023/09/03 06:03:41;;;;;;;17.17;10.00;;;;;;;24.06;60.17;101810.84;6152478;23;20021;-83
2023/09/03 06:06:10;;;;;;;18.58;11.15;;;;;;;24.13;60.25;101817.16;6106897;23;20017;-83
2023/09/03 06:08:38;;;;;;;15.23;10.85;;;;;;;24.18;60.09;101814.69;6147238;23;20306;-82
2023/09/03 06:11:05;;;;;;;13.23;10.27;;;;;;;24.28;59.19;101803.50;6097134;23;20488;-82
2023/09/03 06:13:33;;;;;;;17.45;10.82;;;;;;;23.94;58.86;101737.31;6118703;23;20061;-82
2023/09/03 06:16:01;;;;;;;20.15;10.68;;;;;;;23.98;58.96;101738.63;6131834;23;20337;-80
2023/09/03 06:18:28;;;;;;;22.17;10.52;;;;;;;24.45;58.66;101804.03;6116067;23;20284;-81
2023/09/03 06:20:55;;;;;;;17.17;10.52;;;;;;;24.50;58.35;101797.00;6122828;23;20364;-79
2023/09/03 06:23:22;;;;;;;24.88;11.23;;;;;;;24.10;58.21;101720.75;6111846;23;20449;-83
2023/09/03 06:25:50;;;;;;;24.73;10.60;;;;;;;24.21;57.51;101705.78;6117527;23;20469;-81
2023/09/03 06:28:17;;;;;;;14.80;10.00;;;;;;;24.68;57.24;101776.63;6128941;23;20060;-80
2023/09/03 06:30:44;;;;;;;19.67;11.02;;;;;;;24.80;57.14;101791.28;6126788;23;20021;-81
2023/09/03 06:33:12;;;;;;;18.50;10.63;;;;;;;24.79;56.67;101762.47;6108708;23;20525;-80
2023/09/03 06:35:39;;;;;;;21.88;11.77;;;;;;;25.05;56.70;101804.34;6135536;23;20017;-80
2023/09/03 06:38:10;;;;;;;27.63;10.77;;;;;;;24.93;55.61;101753.34;6122067;23;20017;-81
2023/09/03 06:40:38;;;;;;;13.50;10.52;;;;;;;24.98;56.49;101777.19;6136039;23;20048;-79
2023/09/03 06:43:05;;;;;;;13.38;9.57;;;;;;;25.14;56.63;101808.56;6118511;23;20095;-80
2023/09/03 06:45:32;;;;;;;14.70;10.63;;;;;;;25.19;56.52;101818.84;6108630;23;20362;-81
2023/09/03 06:47:59;;;;;;;20.48;10.25;;;;;;;25.10;56.28;101801.88;6095554;23;20531;-82
2023/09/03 06:50:30;;;;;;;14.35;10.75;;;;;;;25.07;55.96;101791.41;6129368;23;20049;-81
2023/09/03 06:52:58;;;;;;;23.77;11.45;;;;;;;25.26;55.48;101801.53;6135061;23;20021;-82
2023/09/03 06:55:25;;;;;;;15.25;10.30;;;;;;;25.33;55.69;101818.69;6124726;23;20421;-79
2023/09/03 06:57:53;;;;;;;15.40;9.98;;;;;;;25.45;55.41;101835.25;6108316;23;20025;-81
2023/09/03 07:00:20;;;;;;;19.63;9.98;;;;;;;25.38;55.16;101810.75;6116714;23;20415;-78
2023/09/03 07:02:47;;;;;;;16.48;10.00;;;;;;;25.38;55.56;101808.03;6134232;23;20032;-82
2023/09/03 07:05:14;;;;;;;14.98;9.75;;;;;;;25.37;55.51;101800.09;6162071;23;20449;-80
2023/09/03 07:07:42;;;;;;;16.20;10.35;;;;;;;25.61;54.70;101817.72;6155142;23;20316;-81
2023/09/03 07:10:09;;;;;;;20.80;10.95;;;;;;;25.54;54.91;101809.53;6118999;23;20013;-78
2023/09/03 07:12:37;;;;;;;18.73;9.48;;;;;;;25.65;54.90;101816.25;6124681;23;20024;-81
2023/09/03 07:15:07;;;;;;;15.55;9.82;;;;;;;25.64;54.84;101816.47;6129266;23;20372;-81
2023/09/03 07:17:35;;;;;;;19.60;10.43;;;;;;;25.76;55.10;101829.22;6100310;23;20333;-80
2023/09/03 07:20:03;;;;;;;17.90;10.20;;;;;;;25.82;54.56;101821.28;6123985;23;20060;-78
2023/09/03 07:22:29;;;;;;;16.02;9.98;;;;;;;25.85;53.87;101807.25;6153423;23;20855;-79
2023/09/03 07:25:00;;;;;;;19.52;11.10;;;;;;;25.99;54.29;101833.47;6139545;23;20021;-81
2023/09/03 07:27:32;;;;;;;17.98;10.20;;;;;;;26.00;53.31;101826.97;6155154;23;20017;-80
2023/09/03 07:29:59;;;;;;;23.48;11.65;;;;;;;26.11;53.10;101831.78;6120790;23;20025;-81
2023/09/03 07:32:27;;;;;;;13.82;10.63;;;;;;;26.13;53.41;101832.41;6128410;23;20337;-78
2023/09/03 07:34:54;;;;;;;18.48;10.30;;;;;;;26.06;52.54;101801.66;6104393;23;20029;-78
2023/09/03 07:37:21;;;;;;;18.27;10.98;;;;;;;26.27;51.94;101835.13;6138667;23;20104;-78
2023/09/03 07:39:50;;;;;;;14.85;10.77;;;;;;;26.51;51.63;101842.63;6147854;23;20096;-78
2023/09/03 07:42:17;;;;;;;20.10;11.10;;;;;;;26.38;52.01;101834.47;6110098;23;20076;-79
2023/09/03 07:44:43;;;;;;;19.27;10.55;;;;;;;26.33;51.94;101820.66;6131825;23;20017;-81
2023/09/03 07:47:11;;;;;;;18.38;10.75;;;;;;;26.28;52.24;101832.19;6152222;23;20017;-81
2023/09/03 07:49:38;;;;;;;15.60;10.50;;;;;;;26.39;52.51;101849.78;6162951;23;20021;-80
2023/09/03 07:52:08;;;;;;;22.67;11.63;;;;;;;26.22;52.62;101811.28;6109389;23;20336;-80
2023/09/03 07:54:35;;;;;;;14.23;9.85;;;;;;;26.49;52.66;101844.72;6119951;23;20021;-80
2023/09/03 07:57:01;;;;;;;19.45;11.75;;;;;;;26.51;51.89;101828.19;6129469;23;20013;-81
2023/09/03 07:59:28;;;;;;;13.27;10.00;;;;;;;26.60;52.09;101841.41;6122192;23;20013;-78
2023/09/03 08:02:02;;;;;;;17.83;9.55;;;;;;;26.39;52.92;101817.94;6144332;23;20198;-79
2023/09/03 08:04:29;;;;;;;19.83;10.13;;;;;;;26.51;53.14;101839.91;6138659;23;20017;-80
2023/09/03 08:06:56;;;;;;;20.08;10.95;;;;;;;26.74;52.38;101853.06;6108334;23;20573;-80
2023/09/03 08:09:27;;;;;;;20.30;10.23;;;;;;;26.78;51.99;101854.34;6115717;23;20428;-81
2023/09/03 08:11:54;;;;;;;15.00;10.82;;;;;;;26.70;52.19;101835.50;6127022;23;20056;-82
2023/09/03 08:14:24;;;;;;;19.38;10.77;;;;;;;26.36;52.17;101790.28;6129159;23;20052;-80
2023/09/03 08:16:51;;;;;;;14.52;10.10;;;;;;;26.35;52.81;101796.78;6137062;23;20583;-80
2023/09/03 08:19:18;;;;;;;14.40;10.27;;;;;;;26.06;52.92;101752.66;6149843;23;20021;-82
2023/09/03 08:21:45;;;;;;;17.33;10.68;;;;;;;26.60;52.39;101821.47;6134489;23;20033;-80
2023/09/03 08:24:12;;;;;;;24.23;11.40;;;;;;;26.86;52.38;101845.09;6152206;23;20021;-82
2023/09/03 08:26:38;;;;;;;14.70;9.60;;;;;;;26.61;52.23;101804.09;6139794;23;20041;-82
2023/09/03 08:29:05;;;;;;;15.43;10.65;;;;;;;26.76;52.41;101826.47;6119180;23;20025;-81
2023/09/03 08:31:35;;;;;;;14.52;10.45;;;;;;;26.85;51.55;101819.75;6157465;23;20025;-81
2023/09/03 08:34:06;;;;;;;20.65;11.43;;;;;;;27.16;51.12;101850.00;6153571;23;20031;-82
2023/09/03 08:36:35;;;;;;;21.98;10.57;;;;;;;26.85;50.86;101799.84;6157822;23;20024;-81
2023/09/03 08:39:02;;;;;;;19.60;10.68;;;;;;;27.22;50.50;101844.56;6134853;23;20100;-81
2023/09/03 08:41:31;;;;;;;16.50;10.27;;;;;;;26.90;51.22;101799.19;6124337;23;20340;-80
2023/09/03 08:44:06;;;;;;;15.52;10.43;;;;;;;26.67;50.78;101753.38;6130155;23;20025;-81
2023/09/03 08:46:36;;;;;;;13.40;10.00;;;;;;;26.91;51.00;101785.34;6128102;23;20469;-80
2023/09/03 08:49:04;;;;;;;17.95;12.55;;;;;;;27.36;49.64;101823.50;6127585;23;20583;-80
2023/09/03 08:51:33;;;;;;;17.80;9.50;;;;;;;27.32;50.63;101833.16;6140287;23;20323;-80
2023/09/03 08:54:01;;;;;;;18.40;10.15;;;;;;;27.49;50.74;101834.31;6127875;23;20079;-82
2023/09/03 08:56:30;;;;;;;21.02;11.13;;;;;;;27.31;50.83;101812.44;6167200;23;20027;-81
2023/09/03 08:58:58;;;;;;;18.08;11.27;;;;;;;27.11;50.57;101798.84;6161158;23;20105;-80
2023/09/03 09:01:29;;;;;;;19.17;11.23;;;;;;;27.14;50.90;101797.59;6109386;23;20453;-81
2023/09/03 09:04:02;;;;;;;17.60;11.73;;;;;;;27.14;50.51;101767.59;6122077;23;20348;-79
2023/09/03 09:06:31;;;;;;;22.10;11.60;;;;;;;26.98;50.37;101739.00;6118499;23;20385;-80
2023/09/03 09:08:58;;;;;;;16.67;9.75;;;;;;;27.65;50.66;101832.16;6102414;23;20055;-80
2023/09/03 09:11:33;;;;;;;24.73;11.35;;;;;;;27.33;50.05;101763.13;6123449;23;20345;-79
2023/09/03 09:14:01;;;;;;;16.38;11.00;;;;;;;27.67;49.87;101827.28;6129669;23;20039;-80
2023/09/03 09:16:28;;;;;;;20.25;10.38;;;;;;;27.61;50.13;101811.81;6127607;23;20017;-79
2023/09/03 09:18:56;;;;;;;18.02;10.48;;;;;;;27.59;50.77;101805.75;6129223;23;20033;-80
2023/09/03 09:21:24;;;;;;;18.52;10.90;;;;;;;27.63;50.04;101785.16;6127311;23;20418;-77
2023/09/03 09:24:03;;;;;;;24.83;13.52;;;;;;;28.08;49.36;101831.41;6132344;23;20021;-79
2023/09/03 09:26:41;;;;;;;17.65;10.73;;;;;;;28.07;49.82;101830.56;6116275;23;20028;-82
2023/09/03 09:29:08;;;;;;;17.90;12.95;;;;;;;27.94;49.27;101780.72;6120978;23;20020;-79
2023/09/03 09:31:38;;;;;;;18.95;12.02;;;;;;;28.22;49.44;101827.50;6122525;23;20028;-80
2023/09/03 09:34:12;;;;;;;14.57;11.20;;;;;;;28.23;49.43;101810.06;6131300;23;20021;-83
2023/09/03 09:36:54;;;;;;;25.42;12.77;;;;;;;28.19;48.63;101788.91;6136682;23;20017;-80
2023/09/03 09:39:21;;;;;;;16.30;10.30;;;;;;;28.03;49.01;101746.63;6124615;23;20740;-81
2023/09/03 09:42:07;;;;;;;20.42;13.25;;;;;;;28.00;47.97;101687.88;6119737;23;20283;-80
2023/09/03 09:44:34;;;;;;;19.30;12.30;;;;;;;28.03;47.30;101660.13;6127572;23;20033;-82
2023/09/03 09:47:26;;;;;;;19.25;11.27;;;;;;;28.88;47.64;101803.28;6139420;23;20105;-78
2023/09/03 09:49:55;;;;;;;17.27;10.60;;;;;;;29.05;47.31;101798.84;6121404;23;20021;-81
2023/09/03 09:52:33;;;;;;;15.93;9.60;;;;;;;29.18;47.14;101812.38;6122356;23;20409;-81
2023/09/03 09:55:00;;;;;;;22.70;11.15;;;;;;;29.36;47.49;101818.88;6108263;23;20291;-81
2023/09/03 09:57:27;;;;;;;19.15;12.13;;;;;;;28.63;45.93;101659.44;6141282;23;20441;-80
2023/09/03 10:00:03;;;;;;;14.98;11.20;;;;;;;28.99;45.61;101701.38;6110019;23;20088;-81
2023/09/03 10:02:37;;;;;;;16.38;9.50;;;;;;;29.58;45.55;101781.69;6138987;23;20028;-83
2023/09/03 10:05:10;;;;;;;16.15;9.60;;;;;;;29.97;45.63;101825.94;6133211;23;20075;-82
2023/09/03 10:07:42;;;;;;;18.47;11.17;;;;;;;30.13;44.87;101826.31;6124230;23;20021;-81
2023/09/03 10:10:10;;;;;;;15.40;8.52;;;;;;;30.20;44.80;101822.38;6152460;23;20269;-81
2023/09/03 10:12:42;;;;;;;17.95;11.25;;;;;;;30.27;43.99;101811.34;6149643;23;20331;-81
2023/09/03 10:15:09;;;;;;;19.25;11.85;;;;;;;30.20;44.25;101788.69;6148292;23;20109;-81
2023/09/03 10:17:40;;;;;;;15.88;9.73;;;;;;;30.55;43.84;101824.28;6132534;23;20337;-80
2023/09/03 10:20:11;;;;;;;14.65;9.68;;;;;;;30.47;43.47;101777.25;6104245;23;20459;-82
2023/09/03 10:22:41;;;;;;;;;;;;;;;30.78;43.63;101814.34;6124151;23;20051;-82
2023/09/03 10:25:12;;;;;;;21.27;11.90;;;;;;;30.73;42.77;101782.19;6161451;23;20198;-81
2023/09/03 10:27:45;;;;;;;13.00;9.65;;;;;;;31.08;42.86;101812.25;6125724;23;20397;-80
2023/09/03 10:30:15;;;;;;;18.63;9.88;;;;;;;30.83;42.57;101744.06;6139308;23;20311;-82
2023/09/03 10:32:44;;;;;;;14.17;9.57;;;;;;;31.24;41.98;101796.94;6131882;23;20013;-82
2023/09/03 10:35:12;;;;;;;13.57;9.95;;;;;;;31.47;41.81;101814.38;6136034;23;20021;-81
2023/09/03 10:37:54;;;;;;;16.75;9.77;;;;;;;31.44;41.30;101798.41;6120826;23;20021;-82
2023/09/03 10:40:30;;;;;;;13.68;9.05;;;;;;;31.15;41.50;101724.34;6146570;23;20473;-81
2023/09/03 10:43:18;;;;;;;15.98;9.95;;;;;;;31.37;41.96;101765.59;6120015;23;20025;-82
2023/09/03 10:46:06;;;;;;;14.55;9.70;;;;;;;31.80;41.46;101807.22;6136897;23;20024;-79
2023/09/03 10:48:37;;;;;;;17.33;8.80;;;;;;;31.97;40.98;101812.75;6125684;23;20279;-82
2023/09/03 10:51:04;;;;;;;16.67;8.85;;;;;;;32.06;39.83;101798.34;6118968;23;20068;-81
2023/09/03 10:53:36;;;;;;;20.38;10.20;;;;;;;32.29;40.14;101802.00;6131318;23;20103;-81
2023/09/03 10:56:10;;;;;;;14.32;9.77;;;;;;;32.37;39.99;101796.06;6098324;23;20021;-82
2023/09/03 10:58:53;;;;;;;13.23;9.50;;;;;;;32.39;39.71;101788.38;6120365;23;20024;-82
2023/09/03 11:01:24;;;;;;;15.13;10.63;;;;;;;31.98;39.92;101694.44;6125769;23;20449;-80
2023/09/03 11:03:52;;;;;;;13.95;9.75;;;;;;;32.54;39.40;101746.56;6126684;23;20040;-82
2023/09/03 11:06:21;;;;;;;12.55;9.23;;;;;;;32.77;39.14;101756.47;6127667;23;20021;-80
2023/09/03 11:09:09;;;;;;;18.50;10.20;;;;;;;32.72;38.86;101704.16;6131668;23;20021;-82
2023/09/03 11:11:40;;;;;;;18.30;10.57;;;;;;;32.57;38.84;101677.31;6112078;23;20533;-82
2023/09/03 11:14:07;;;;;;;19.57;10.33;;;;;;;33.12;38.35;101742.28;6125281;23;20020;-83
2023/09/03 11:16:36;;;;;;;13.75;8.75;;;;;;;33.34;38.05;101755.97;6115437;23;20275;-81
2023/09/03 11:19:07;;;;;;;16.48;8.50;;;;;;;33.07;38.49;101700.16;6119097;23;20072;-82
2023/09/03 11:21:36;;;;;;;15.70;8.63;;;;;;;33.48;37.85;101745.34;6097360;23;20408;-81
2023/09/03 11:24:05;;;;;;;12.93;9.23;;;;;;;33.44;37.53;101716.69;6106839;23;20017;-82
2023/09/03 11:26:33;;;;;;;10.85;7.65;;;;;;;33.79;37.21;101757.47;6115939;23;20092;-82
2023/09/03 11:29:02;;;;;;;15.82;9.07;;;;;;;33.59;36.76;101707.75;6108479;23;20541;-81